createdAt,value
2022-08-28T00:00:26.174Z,22.20
2022-08-28T00:02:55.032Z,22.60
2022-08-28T00:05:27.378Z,22.60
2022-08-28T00:07:57.073Z,22.60
2022-08-28T00:10:26.544Z,22.70
2022-08-28T00:12:57.354Z,22.70
2022-08-28T00:15:28.639Z,22.80
2022-08-28T00:17:56.590Z,22.60
2022-08-28T00:20:26.698Z,22.50
2022-08-28T00:22:55.622Z,22.50
2022-08-28T00:25:26.534Z,22.40
2022-08-28T00:27:55.174Z,22.40
2022-08-28T00:30:25.462Z,22.30
2022-08-28T00:32:54.976Z,22.40
2022-08-28T00:35:25.100Z,22.30
2022-08-28T00:37:54.545Z,22.40
2022-08-28T00:40:30.650Z,22.40
2022-08-28T00:43:01.818Z,22.40
2022-08-28T00:45:30.585Z,22.30
2022-08-28T00:47:58.881Z,22.40
2022-08-28T00:50:53.209Z,22.50
2022-08-28T00:53:25.324Z,22.60
2022-08-28T00:55:57.736Z,22.50
2022-08-28T00:58:25.656Z,22.40
2022-08-28T01:00:53.411Z,22.30
2022-08-28T01:03:21.786Z,22.50
2022-08-28T01:05:54.641Z,22.20
2022-08-28T01:08:23.054Z,22.10
2022-08-28T01:10:56.608Z,22.10
2022-08-28T01:13:26.724Z,22.20
2022-08-28T01:15:55.528Z,22.10
2022-08-28T01:18:23.581Z,22.10
2022-08-28T01:21:00.573Z,22.10
2022-08-28T01:23:45.660Z,22.20
2022-08-28T01:26:13.912Z,22.10
2022-08-28T01:28:41.778Z,22.20
2022-08-28T01:31:11.325Z,22.10
2022-08-28T01:33:40.474Z,22.10
2022-08-28T01:36:12.123Z,21.90
2022-08-28T01:38:41.472Z,22.10
2022-08-28T01:41:12.642Z,22.00
2022-08-28T01:43:41.598Z,22.10
2022-08-28T01:46:10.547Z,21.80
2022-08-28T01:48:41.589Z,22.00
2022-08-28T01:51:10.206Z,22.00
2022-08-28T01:53:38.143Z,22.00
2022-08-28T01:56:10.900Z,22.00
2022-08-28T01:58:39.149Z,21.90
2022-08-28T02:01:11.432Z,21.90
2022-08-28T02:03:40.014Z,21.90
2022-08-28T02:06:08.044Z,21.90
2022-08-28T02:08:36.616Z,21.90
2022-08-28T02:11:06.120Z,21.90
2022-08-28T02:13:37.475Z,21.80
2022-08-28T02:16:05.775Z,21.90
2022-08-28T02:18:33.983Z,21.80
2022-08-28T02:21:01.916Z,21.40
2022-08-28T02:23:29.691Z,21.30
2022-08-28T02:25:57.440Z,21.80
2022-08-28T02:28:25.216Z,21.90
2022-08-28T02:30:54.384Z,21.80
2022-08-28T02:33:22.681Z,21.80
2022-08-28T02:35:50.833Z,21.70
2022-08-28T02:38:18.988Z,21.40
2022-08-28T02:40:47.010Z,21.70
2022-08-28T02:43:14.867Z,21.70
2022-08-28T02:45:42.660Z,21.90
2022-08-28T02:48:16.806Z,21.20
2022-08-28T02:50:46.154Z,21.70
2022-08-28T02:53:14.941Z,21.70
2022-08-28T02:55:42.733Z,21.70
2022-08-28T02:58:10.630Z,21.50
2022-08-28T03:00:38.556Z,21.70
2022-08-28T03:03:06.408Z,21.60
2022-08-28T03:05:35.560Z,21.60
2022-08-28T03:08:03.703Z,21.60
2022-08-28T03:10:31.908Z,21.70
2022-08-28T03:12:59.705Z,21.70
2022-08-28T03:15:27.453Z,21.10
2022-08-28T03:17:55.244Z,21.60
2022-08-28T03:20:23.920Z,21.60
2022-08-28T03:23:10.446Z,21.60
2022-08-28T03:25:38.296Z,21.60
2022-08-28T03:28:06.185Z,21.50
2022-08-28T03:30:34.004Z,21.50
2022-08-28T03:33:01.880Z,21.70
2022-08-28T03:35:30.030Z,21.00
2022-08-28T03:37:59.327Z,21.30
2022-08-28T03:40:27.685Z,21.40
2022-08-28T03:42:55.713Z,21.00
2022-08-28T03:45:23.568Z,21.40
2022-08-28T03:47:51.668Z,21.30
2022-08-28T03:50:19.981Z,21.70
2022-08-28T03:52:47.839Z,21.60
2022-08-28T03:55:19.570Z,21.00
2022-08-28T03:57:47.405Z,21.30
2022-08-28T04:00:16.288Z,21.30
2022-08-28T04:02:46.044Z,21.40
2022-08-28T04:05:14.456Z,21.30
2022-08-28T04:07:42.277Z,21.40
2022-08-28T04:10:12.048Z,21.30
2022-08-28T04:12:41.212Z,21.20
2022-08-28T04:15:10.788Z,21.20
2022-08-28T04:17:39.655Z,21.10
2022-08-28T04:20:09.169Z,21.30
2022-08-28T04:22:37.228Z,21.10
2022-08-28T04:25:05.666Z,21.10
2022-08-28T04:27:34.909Z,21.10
2022-08-28T04:30:05.028Z,21.20
2022-08-28T04:32:35.775Z,21.10
2022-08-28T04:35:03.974Z,21.00
2022-08-28T04:37:31.770Z,21.20
2022-08-28T04:40:00.146Z,21.00
2022-08-28T04:42:28.087Z,21.10
2022-08-28T04:44:57.896Z,20.80
2022-08-28T04:47:27.275Z,21.00
2022-08-28T04:49:55.655Z,21.00
2022-08-28T04:52:23.816Z,21.00
2022-08-28T04:54:51.600Z,20.90
2022-08-28T04:57:19.443Z,21.00
2022-08-28T04:59:47.717Z,20.70
2022-08-28T05:02:15.571Z,21.00
2022-08-28T05:04:44.809Z,20.90
2022-08-28T05:07:12.581Z,20.90
2022-08-28T05:09:40.364Z,21.10
2022-08-28T05:12:08.260Z,21.10
2022-08-28T05:14:36.795Z,21.30
2022-08-28T05:17:04.644Z,21.20
2022-08-28T05:19:33.945Z,21.10
2022-08-28T05:22:03.057Z,21.30
2022-08-28T05:24:30.840Z,21.10
2022-08-28T05:26:59.485Z,21.10
2022-08-28T05:29:27.255Z,21.20
2022-08-28T05:31:55.125Z,21.30
2022-08-28T05:34:23.161Z,21.00
2022-08-28T05:36:50.953Z,21.20
2022-08-28T05:39:20.113Z,21.10
2022-08-28T05:41:48.156Z,21.40
2022-08-28T05:44:17.560Z,21.20
2022-08-28T05:46:48.360Z,21.20
2022-08-28T05:49:17.721Z,21.30
2022-08-28T05:51:46.094Z,20.80
2022-08-28T05:54:15.825Z,21.30
2022-08-28T05:56:46.423Z,21.30
2022-08-28T05:59:15.340Z,21.30
2022-08-28T06:01:45.861Z,21.30
2022-08-28T06:04:15.806Z,21.00
2022-08-28T06:06:44.396Z,21.20
2022-08-28T06:09:14.564Z,21.20
2022-08-28T06:11:44.850Z,21.30
2022-08-28T06:14:16.169Z,21.20
2022-08-28T06:16:47.130Z,21.40
2022-08-28T06:19:16.796Z,21.30
2022-08-28T06:21:46.724Z,21.30
2022-08-28T06:24:14.615Z,21.30
2022-08-28T06:26:43.752Z,21.40
2022-08-28T06:29:15.556Z,21.50
2022-08-28T06:31:43.968Z,21.40
2022-08-28T06:34:11.912Z,21.50
2022-08-28T06:36:42.857Z,21.60
2022-08-28T06:39:12.740Z,21.60
2022-08-28T06:41:43.136Z,21.70
2022-08-28T06:44:13.875Z,21.50
2022-08-28T06:46:42.688Z,21.90
2022-08-28T06:49:12.724Z,21.50
2022-08-28T06:51:41.073Z,21.90
2022-08-28T06:54:09.294Z,22.00
2022-08-28T06:56:37.251Z,22.00
2022-08-28T06:59:05.810Z,22.10
2022-08-28T07:01:37.318Z,22.10
2022-08-28T07:04:07.857Z,22.20
2022-08-28T07:06:37.692Z,22.20
2022-08-28T07:09:07.153Z,22.20
2022-08-28T07:11:36.603Z,22.40
2022-08-28T07:14:05.554Z,22.50
2022-08-28T07:16:38.083Z,22.70
2022-08-28T07:19:07.168Z,22.90
2022-08-28T07:21:38.151Z,22.90
2022-08-28T07:24:07.679Z,23.40
2022-08-28T07:26:36.954Z,24.00
2022-08-28T07:29:09.952Z,24.70
2022-08-28T07:31:42.489Z,25.50
2022-08-28T07:34:10.904Z,26.40
2022-08-28T07:36:38.950Z,27.00
2022-08-28T07:39:07.318Z,27.20
2022-08-28T07:41:38.903Z,27.10
2022-08-28T07:44:25.062Z,26.70
2022-08-28T07:46:56.333Z,26.30
2022-08-28T07:49:24.505Z,26.10
2022-08-28T07:51:53.942Z,26.20
2022-08-28T07:54:22.763Z,26.10
2022-08-28T07:56:51.326Z,26.40
2022-08-28T07:59:19.540Z,26.60
2022-08-28T08:01:50.521Z,26.40
2022-08-28T08:04:21.270Z,26.20
2022-08-28T08:06:51.456Z,26.10
2022-08-28T08:09:22.740Z,25.90
2022-08-28T08:11:50.736Z,26.00
2022-08-28T08:14:19.265Z,26.00
2022-08-28T08:16:48.499Z,26.10
2022-08-28T08:19:17.285Z,26.00
2022-08-28T08:21:53.122Z,25.80
2022-08-28T08:24:25.829Z,25.60
2022-08-28T08:26:59.835Z,25.50
2022-08-28T08:29:31.178Z,25.50
2022-08-28T08:32:04.826Z,25.50
2022-08-28T08:34:33.290Z,25.90
2022-08-28T08:37:02.491Z,26.90
2022-08-28T08:39:31.789Z,28.30
2022-08-28T08:42:01.845Z,29.40
2022-08-28T08:44:33.836Z,30.00
2022-08-28T08:47:14.039Z,30.20
2022-08-28T08:49:51.290Z,30.00
2022-08-28T08:52:48.960Z,30.20
2022-08-28T08:55:27.062Z,30.40
2022-08-28T08:58:10.303Z,30.80
2022-08-28T09:00:52.017Z,31.70
2022-08-28T09:03:24.156Z,32.70
2022-08-28T09:05:56.916Z,33.60
2022-08-28T09:08:32.630Z,33.70
2022-08-28T09:11:06.906Z,33.10
2022-08-28T09:13:45.704Z,32.70
2022-08-28T09:16:23.328Z,33.40
2022-08-28T09:18:51.647Z,34.10
2022-08-28T09:21:32.383Z,35.10
2022-08-28T09:24:05.898Z,36.00
2022-08-28T09:26:41.180Z,36.60
2022-08-28T09:29:16.872Z,37.00
2022-08-28T09:31:44.905Z,36.90
2022-08-28T09:34:23.721Z,36.20
2022-08-28T09:36:52.242Z,35.00
2022-08-28T09:39:21.892Z,33.70
2022-08-28T09:42:20.092Z,32.80
2022-08-28T09:44:56.312Z,32.00
2022-08-28T09:47:40.585Z,31.50
2022-08-28T09:50:25.696Z,31.10
2022-08-28T09:52:55.814Z,30.70
2022-08-28T09:55:41.278Z,30.20
2022-08-28T09:58:11.160Z,29.90
2022-08-28T10:00:49.271Z,30.10
2022-08-28T10:03:22.564Z,29.90
2022-08-28T10:06:03.772Z,29.90
2022-08-28T10:08:55.021Z,29.30
2022-08-28T10:11:32.695Z,29.00
2022-08-28T10:14:11.792Z,28.50
2022-08-28T10:16:48.028Z,28.50
2022-08-28T10:19:28.301Z,28.60
2022-08-28T10:22:03.008Z,28.80
2022-08-28T10:24:50.876Z,29.20
2022-08-28T10:27:32.538Z,28.80
2022-08-28T10:30:12.413Z,28.80
2022-08-28T10:33:10.640Z,28.70
2022-08-28T10:35:46.534Z,28.90
2022-08-28T10:38:18.374Z,29.10
2022-08-28T10:40:54.378Z,29.70
2022-08-28T10:43:30.285Z,30.80
2022-08-28T10:46:04.597Z,31.80
2022-08-28T10:48:38.960Z,32.60
2022-08-28T10:51:12.612Z,33.30
2022-08-28T10:53:44.248Z,33.60
2022-08-28T10:56:17.985Z,33.40
2022-08-28T10:58:50.058Z,33.30
2022-08-28T11:01:26.683Z,33.70
2022-08-28T11:03:55.515Z,34.00
2022-08-28T11:06:28.901Z,34.00
2022-08-28T11:08:59.219Z,33.70
2022-08-28T11:11:46.100Z,33.20
2022-08-28T11:14:26.278Z,32.70
2022-08-28T11:17:00.598Z,32.30
2022-08-28T11:20:00.201Z,32.00
2022-08-28T11:22:31.660Z,32.80
2022-08-28T11:25:09.610Z,33.20
2022-08-28T11:27:39.499Z,32.90
2022-08-28T11:30:32.596Z,32.10
2022-08-28T11:33:10.104Z,31.00
2022-08-28T11:35:45.220Z,31.40
2022-08-28T11:38:16.419Z,32.20
2022-08-28T11:40:56.539Z,32.30
2022-08-28T11:43:37.605Z,32.10
2022-08-28T11:46:28.671Z,31.80
2022-08-28T11:48:59.859Z,31.80
2022-08-28T11:51:52.476Z,31.90
2022-08-28T11:54:46.859Z,32.10
2022-08-28T11:57:18.637Z,32.10
2022-08-28T12:00:03.501Z,32.10
2022-08-28T12:03:01.055Z,31.60
2022-08-28T12:05:55.258Z,31.70
2022-08-28T12:09:05.614Z,31.80
2022-08-28T12:11:59.321Z,31.90
2022-08-28T12:15:04.555Z,32.00
2022-08-28T12:17:53.608Z,32.10
2022-08-28T12:20:32.759Z,31.80
2022-08-28T12:23:05.628Z,32.30
2022-08-28T12:25:38.700Z,32.20
2022-08-28T12:28:23.593Z,32.50
2022-08-28T12:30:58.975Z,32.80
2022-08-28T12:33:33.284Z,33.30
2022-08-28T12:36:03.602Z,33.20
2022-08-28T12:38:34.641Z,32.60
2022-08-28T12:41:03.555Z,32.70
2022-08-28T12:43:35.633Z,32.80
2022-08-28T12:46:19.909Z,32.70
2022-08-28T12:48:53.099Z,32.40
2022-08-28T12:51:24.237Z,32.50
2022-08-28T12:53:55.484Z,32.60
2022-08-28T12:56:26.013Z,31.80
2022-08-28T12:58:54.258Z,31.30
2022-08-28T13:01:29.134Z,31.10
2022-08-28T13:04:00.360Z,31.30
2022-08-28T13:06:31.224Z,31.40
2022-08-28T13:09:03.195Z,31.30
2022-08-28T13:11:35.279Z,30.90
2022-08-28T13:14:04.235Z,30.90
2022-08-28T13:16:39.491Z,30.80
2022-08-28T13:19:32.114Z,30.90
2022-08-28T13:22:02.562Z,31.00
2022-08-28T13:24:45.585Z,30.90
2022-08-28T13:27:24.355Z,30.80
2022-08-28T13:30:05.931Z,30.60
2022-08-28T13:32:36.615Z,30.50
2022-08-28T13:35:31.676Z,30.00
2022-08-28T13:38:03.277Z,29.80
2022-08-28T13:43:24.459Z,30.40
2022-08-28T13:45:53.007Z,30.30
2022-08-28T13:48:23.072Z,30.30
2022-08-28T13:50:53.695Z,30.50
2022-08-28T13:53:22.508Z,30.50
2022-08-28T13:55:51.847Z,30.50
2022-08-28T13:58:20.315Z,30.20
2022-08-28T14:00:50.877Z,30.20
2022-08-28T14:03:37.647Z,29.90
2022-08-28T14:06:09.063Z,29.90
2022-08-28T14:08:36.918Z,30.10
2022-08-28T14:11:07.168Z,30.20
2022-08-28T14:13:35.876Z,30.40
2022-08-28T14:16:06.936Z,30.50
2022-08-28T14:18:34.999Z,30.20
2022-08-28T14:21:06.156Z,29.90
2022-08-28T14:23:34.368Z,29.60
2022-08-28T14:26:04.841Z,29.60
2022-08-28T14:28:34.340Z,29.60
2022-08-28T14:31:05.435Z,29.30
2022-08-28T14:33:34.368Z,29.10
2022-08-28T14:36:05.411Z,28.80
2022-08-28T14:38:33.349Z,28.70
2022-08-28T14:41:01.444Z,28.60
2022-08-28T14:43:30.180Z,28.70
2022-08-28T14:46:00.395Z,29.00
2022-08-28T14:48:28.536Z,29.20
2022-08-28T14:50:56.335Z,29.40
2022-08-28T14:53:24.096Z,29.60
2022-08-28T14:55:52.079Z,29.70
2022-08-28T14:58:21.214Z,29.80
2022-08-28T15:00:51.873Z,29.80
2022-08-28T15:03:21.647Z,30.00
2022-08-28T15:05:49.448Z,30.00
2022-08-28T15:08:18.470Z,30.10
2022-08-28T15:10:48.545Z,30.10
2022-08-28T15:13:16.340Z,29.90
2022-08-28T15:15:44.201Z,29.70
2022-08-28T15:18:12.731Z,29.80
2022-08-28T15:20:44.764Z,30.00
2022-08-28T15:23:13.865Z,29.80
2022-08-28T15:25:42.125Z,29.60
2022-08-28T15:28:10.518Z,29.50
2022-08-28T15:30:39.061Z,29.30
2022-08-28T15:33:07.551Z,29.20
2022-08-28T15:35:37.013Z,29.00
2022-08-28T15:38:06.809Z,28.90
2022-08-28T15:40:52.815Z,28.80
2022-08-28T15:43:21.068Z,28.80
2022-08-28T15:45:49.877Z,28.80
2022-08-28T15:48:17.864Z,28.80
2022-08-28T15:50:45.734Z,28.70
2022-08-28T15:53:15.148Z,28.90
2022-08-28T15:55:46.632Z,28.90
2022-08-28T15:58:14.744Z,28.60
2022-08-28T16:00:43.324Z,28.30
2022-08-28T16:03:11.337Z,28.20
2022-08-28T16:05:40.712Z,28.10
2022-08-28T16:08:10.407Z,28.10
2022-08-28T16:10:39.976Z,28.10
2022-08-28T16:13:07.807Z,28.10
2022-08-28T16:15:36.083Z,28.00
2022-08-28T16:18:08.669Z,28.10
2022-08-28T16:20:36.999Z,28.00
2022-08-28T16:23:04.803Z,28.00
2022-08-28T16:25:32.590Z,27.90
2022-08-28T16:28:01.804Z,27.90
2022-08-28T16:30:29.825Z,27.90
2022-08-28T16:32:57.668Z,28.00
2022-08-28T16:35:25.490Z,28.00
2022-08-28T16:37:53.339Z,27.80
2022-08-28T16:40:21.653Z,27.80
2022-08-28T16:42:51.649Z,27.90
2022-08-28T16:45:21.554Z,27.80
2022-08-28T16:47:50.009Z,27.60
2022-08-28T16:50:19.313Z,27.60
2022-08-28T16:52:47.558Z,27.50
2022-08-28T16:55:15.566Z,27.40
2022-08-28T16:57:43.537Z,27.40
2022-08-28T17:00:13.774Z,27.50
2022-08-28T17:02:43.428Z,27.40
2022-08-28T17:05:12.729Z,27.40
2022-08-28T17:07:40.847Z,27.20
2022-08-28T17:10:10.576Z,27.20
2022-08-28T17:12:38.379Z,27.10
2022-08-28T17:15:07.239Z,27.20
2022-08-28T17:17:35.165Z,27.20
2022-08-28T17:20:05.759Z,27.30
2022-08-28T17:22:32.683Z,27.20
2022-08-28T17:25:02.780Z,27.00
2022-08-28T17:27:31.977Z,26.90
2022-08-28T17:30:01.247Z,26.80
2022-08-28T17:32:29.292Z,26.70
2022-08-28T17:34:57.053Z,26.80
2022-08-28T17:37:26.229Z,26.70
2022-08-28T17:39:54.307Z,26.70
2022-08-28T17:42:22.648Z,26.60
2022-08-28T17:44:50.416Z,26.60
2022-08-28T17:47:18.307Z,26.50
2022-08-28T17:49:54.791Z,26.40
2022-08-28T17:52:22.544Z,26.40
2022-08-28T17:54:51.669Z,26.30
2022-08-28T17:57:19.456Z,26.30
2022-08-28T17:59:47.635Z,26.20
2022-08-28T18:02:16.636Z,26.20
2022-08-28T18:04:44.550Z,26.30
2022-08-28T18:07:12.412Z,26.10
2022-08-28T18:09:40.291Z,26.00
2022-08-28T18:12:12.668Z,25.90
2022-08-28T18:14:41.002Z,25.80
2022-08-28T18:17:10.616Z,25.80
2022-08-28T18:19:39.994Z,25.80
2022-08-28T18:22:08.946Z,25.70
2022-08-28T18:24:36.797Z,25.60
2022-08-28T18:27:05.181Z,25.50
2022-08-28T18:29:34.627Z,25.50
2022-08-28T18:32:02.657Z,25.40
2022-08-28T18:34:31.534Z,25.30
2022-08-28T18:36:59.474Z,25.30
2022-08-28T18:39:29.570Z,25.20
2022-08-28T18:41:58.860Z,25.20
2022-08-28T18:44:26.603Z,25.10
2022-08-28T18:46:56.097Z,25.00
2022-08-28T18:49:23.959Z,25.00
2022-08-28T18:51:51.825Z,24.90
2022-08-28T18:54:20.965Z,24.90
2022-08-28T18:56:50.800Z,24.90
2022-08-28T18:59:19.370Z,24.80
2022-08-28T19:01:47.344Z,24.70
2022-08-28T19:04:16.539Z,24.60
2022-08-28T19:06:44.497Z,24.50
2022-08-28T19:09:16.993Z,24.40
2022-08-28T19:11:48.710Z,24.40
2022-08-28T19:14:16.606Z,24.40
2022-08-28T19:16:44.704Z,24.40
2022-08-28T19:19:12.500Z,24.30
2022-08-28T19:21:42.003Z,24.20
2022-08-28T19:24:09.836Z,24.20
2022-08-28T19:26:38.515Z,24.10
2022-08-28T19:29:06.947Z,24.00
2022-08-28T19:31:37.786Z,24.20
2022-08-28T19:34:07.540Z,24.20
2022-08-28T19:36:36.922Z,24.10
2022-08-28T19:39:06.649Z,24.00
2022-08-28T19:41:35.040Z,24.00
2022-08-28T19:44:02.775Z,24.00
2022-08-28T19:46:31.307Z,23.90
2022-08-28T19:49:01.023Z,23.80
2022-08-28T19:51:29.617Z,23.90
2022-08-28T19:53:58.907Z,23.80
2022-08-28T19:56:29.559Z,23.80
2022-08-28T19:58:59.231Z,23.80
2022-08-28T20:01:29.741Z,23.80
2022-08-28T20:03:58.627Z,23.70
2022-08-28T20:06:27.241Z,23.70
2022-08-28T20:08:55.114Z,23.70
2022-08-28T20:11:24.935Z,23.60
2022-08-28T20:13:55.547Z,23.60
2022-08-28T20:16:23.551Z,23.50
2022-08-28T20:18:51.406Z,23.40
2022-08-28T20:21:28.833Z,23.30
2022-08-28T20:24:07.197Z,23.40
2022-08-28T20:26:35.083Z,23.40
2022-08-28T20:29:04.528Z,23.20
2022-08-28T20:31:32.267Z,23.20
2022-08-28T20:34:00.024Z,23.20
2022-08-28T20:36:27.844Z,23.20
2022-08-28T20:38:55.699Z,22.90
2022-08-28T20:41:23.671Z,23.10
2022-08-28T20:43:51.495Z,23.10
2022-08-28T20:46:20.673Z,23.10
2022-08-28T20:48:48.519Z,23.10
2022-08-28T20:51:16.370Z,22.90
2022-08-28T20:53:45.411Z,22.80
2022-08-28T20:56:13.195Z,22.80
2022-08-28T20:58:41.005Z,22.60
2022-08-28T21:01:08.861Z,22.50
2022-08-28T21:03:38.586Z,22.40
2022-08-28T21:06:06.631Z,22.40
2022-08-28T21:08:34.447Z,22.40
2022-08-28T21:11:02.202Z,22.40
2022-08-28T21:13:30.056Z,22.30
2022-08-28T21:15:57.813Z,22.30
2022-08-28T21:18:25.579Z,22.30
2022-08-28T21:20:56.913Z,22.40
2022-08-28T21:23:24.687Z,22.30
2022-08-28T21:25:53.544Z,22.10
2022-08-28T21:28:21.307Z,22.40
2022-08-28T21:30:49.174Z,22.30
2022-08-28T21:33:17.000Z,22.20
2022-08-28T21:35:45.557Z,22.10
2022-08-28T21:38:14.809Z,22.10
2022-08-28T21:40:42.834Z,22.10
2022-08-28T21:43:10.675Z,22.10
2022-08-28T21:45:38.599Z,22.10
2022-08-28T21:48:06.582Z,22.20
2022-08-28T21:50:34.388Z,22.00
2022-08-28T21:53:02.123Z,21.90
2022-08-28T21:55:31.245Z,21.80
2022-08-28T21:57:59.071Z,21.70
2022-08-28T22:00:26.989Z,21.70
2022-08-28T22:02:54.785Z,21.70
2022-08-28T22:05:22.849Z,21.60
2022-08-28T22:07:50.638Z,21.70
2022-08-28T22:10:18.488Z,21.70
2022-08-28T22:12:47.641Z,21.60
2022-08-28T22:15:16.466Z,21.50
2022-08-28T22:17:45.325Z,21.60
2022-08-28T22:20:13.249Z,21.80
2022-08-28T22:22:58.793Z,21.70
2022-08-28T22:25:26.725Z,21.70
2022-08-28T22:27:56.396Z,21.60
2022-08-28T22:30:24.387Z,21.60
2022-08-28T22:32:52.360Z,21.50
2022-08-28T22:35:20.530Z,21.60
2022-08-28T22:37:48.436Z,21.50
2022-08-28T22:40:16.340Z,21.60
2022-08-28T22:42:44.324Z,21.40
2022-08-28T22:45:13.607Z,21.70
2022-08-28T22:47:41.386Z,21.80
2022-08-28T22:50:10.333Z,22.00
2022-08-28T22:52:38.749Z,21.90
2022-08-28T22:55:10.633Z,21.80
2022-08-28T22:57:40.359Z,21.80
2022-08-28T23:00:11.012Z,21.70
2022-08-28T23:02:41.281Z,21.70
2022-08-28T23:05:09.434Z,21.30
2022-08-28T23:07:38.261Z,21.20
2022-08-28T23:10:07.467Z,21.50
2022-08-28T23:12:35.689Z,21.50
2022-08-28T23:15:04.200Z,21.50
2022-08-28T23:17:31.930Z,21.50
2022-08-28T23:20:01.616Z,21.80
2022-08-28T23:22:29.404Z,21.40
2022-08-28T23:24:57.272Z,21.40
2022-08-28T23:27:40.251Z,21.30
2022-08-28T23:30:08.791Z,21.20
2022-08-28T23:32:36.907Z,21.10
2022-08-28T23:35:07.541Z,21.10
2022-08-28T23:37:36.716Z,21.20
2022-08-28T23:40:07.460Z,21.30
2022-08-28T23:42:36.501Z,21.30
2022-08-28T23:45:05.787Z,21.20
2022-08-28T23:47:34.067Z,21.20
2022-08-28T23:50:14.508Z,20.80
2022-08-28T23:52:43.224Z,21.00
2022-08-28T23:55:13.479Z,20.70
2022-08-28T23:57:41.600Z,20.80
